MDT,Max TemperatureF,Mean TemperatureF,Min TemperatureF,Max Dew PointF,MeanDew PointF,Min DewpointF,Max Humidity, Mean Humidity, Min Humidity, Max Sea Level PressureIn, Mean Sea Level PressureIn, Min Sea Level PressureIn, Max VisibilityMiles, Mean VisibilityMiles, Min VisibilityMiles, Max Wind SpeedMPH, Mean Wind SpeedMPH, Max Gust SpeedMPH,PrecipitationIn, CloudCover, Events, WindDirDegrees
2013-9-1,83,68,52,50,45,41,70,45,25,30.12,30.07,30.01,10,10,10,10,7,,0.00,0,,305
2013-9-2,92,73,54,56,52,48,80,45,22,30.05,29.97,29.88,10,10,10,16,7,32,0.00,0,,162
2013-9-3,91,80,69,61,59,56,68,52,36,29.99,29.91,29.84,10,10,10,13,6,17,0.00,5,,39
2013-9-4,91,78,65,63,61,59,81,59,37,30.06,30.02,29.96,10,10,10,12,8,,0.00,1,,57
2013-9-5,89,77,66,64,63,61,88,58,41,30.13,30.02,29.90,10,10,10,18,8,22,0.00,1,,154
2013-9-6,90,78,66,65,62,58,75,57,41,29.95,29.91,29.87,10,10,10,21,6,28,0.00,3,,321
2013-9-7,95,80,65,66,62,57,86,56,29,30.03,29.93,29.88,10,8,5,20,9,25,0.00,0,,156
2013-9-8,82,72,63,68,63,61,96,81,54,30.04,29.93,29.75,10,6,1,31,9,48,0.69,7,Rain-Thunderstorm,13
2013-9-9,75,68,61,63,58,53,94,72,47,29.98,29.86,29.73,10,10,9,23,11,30,0.01,5,Rain,321
2013-9-10,77,66,57,57,51,46,89,59,36,30.12,30.05,29.96,10,10,10,18,7,20,0.00,1,,318
2013-9-11,81,68,55,56,49,40,85,51,23,30.23,30.18,30.13,10,10,10,10,4,,0.00,0,,300
2013-9-12,80,67,55,51,49,46,77,53,32,30.32,30.24,30.19,10,10,10,15,7,,0.00,0,,123
2013-9-13,71,62,55,59,55,46,88,74,55,30.17,30.00,29.85,10,10,10,28,13,33,0.00,6,Rain,179
2013-9-14,78,68,58,63,59,57,95,80,50,30.06,29.88,29.76,10,10,4,29,12,37,0.01,6,Rain,349
2013-9-15,70,62,52,57,54,48,100,85,46,30.30,30.19,30.04,10,10,6,20,11,,0.00,7,Rain,24
2013-9-16,68,59,50,54,52,49,94,78,61,30.25,30.07,29.88,10,10,10,29,18,37,0.01,2,,175
2013-9-17,91,70,50,56,52,46,100,58,22,29.87,29.77,29.58,10,8,0,17,7,24,0.00,0,Fog-Rain,172
2013-9-18,90,74,58,53,48,43,79,43,20,29.81,29.63,29.54,10,10,10,26,10,36,0.00,1,,288
2013-9-19,63,52,41,45,40,36,81,57,41,30.17,30.03,29.81,10,10,10,28,19,36,0.00,1,,342
2013-9-20,72,54,38,39,37,34,83,53,29,30.17,30.07,29.94,10,10,10,8,5,,0.00,0,,211
2013-9-21,89,68,46,40,34,30,62,26,13,29.93,29.73,29.58,10,10,10,12,6,,0.00,0,Rain,164
2013-9-22,92,73,55,57,44,35,92,38,18,29.57,29.50,29.41,10,10,9,20,8,28,0.08,3,Rain-Thunderstorm,220
2013-9-23,62,56,48,57,54,46,100,90,72,29.95,29.71,29.40,10,8,0,37,12,46,0.45,6,Fog-Rain,282
2013-9-24,75,58,42,49,42,38,86,56,28,30.03,29.91,29.73,10,10,10,22,9,34,0.00,1,,201
2013-9-25,81,68,55,51,46,41,79,53,29,29.71,29.55,29.40,10,10,10,25,16,34,0.01,2,Rain-Thunderstorm,184
2013-9-26,64,56,48,48,44,37,93,67,45,29.89,29.73,29.53,10,10,10,23,19,31,0.00,2,,356
2013-9-27,48,44,41,40,38,36,91,80,65,30.00,29.91,29.86,10,10,10,26,18,32,0.08,8,Rain,337
2013-9-28,68,52,36,38,33,30,91,50,24,29.99,29.94,29.89,10,10,10,21,8,29,0.00,2,,266
2013-9-29,80,60,41,41,36,33,77,43,20,29.89,29.72,29.61,10,10,10,16,7,,0.00,0,,247
2013-9-30,86,67,49,48,39,28,67,44,17,29.77,29.62,29.45,10,10,10,46,15,59,0.00,2,,296